createdAt,value
2023-05-23T00:02:10.024Z,99787.16
2023-05-23T00:07:11.726Z,99785.06
2023-05-23T00:12:13.304Z,99786.16
2023-05-23T00:17:17.539Z,99787.63
2023-05-23T00:22:19.219Z,99783.72
2023-05-23T00:27:20.823Z,99785.66
2023-05-23T00:32:22.520Z,99807.03
2023-05-23T00:37:24.333Z,99814.63
2023-05-23T00:42:26.133Z,99822.16
2023-05-23T00:47:28.002Z,99819.97
2023-05-23T00:52:29.660Z,99807.50
2023-05-23T00:57:31.436Z,99792.75
2023-05-23T01:02:36.605Z,99789.28
2023-05-23T01:07:38.384Z,99787.25
2023-05-23T01:12:51.078Z,99773.13
2023-05-23T01:18:00.684Z,99788.97
2023-05-23T01:23:48.470Z,99779.03
2023-05-23T01:28:53.505Z,99804.19
2023-05-23T01:33:56.937Z,99785.22
2023-05-23T01:38:58.574Z,99806.47
2023-05-23T01:44:00.725Z,99810.22
2023-05-23T01:49:04.116Z,99816.31
2023-05-23T01:54:07.650Z,99797.09
2023-05-23T01:59:09.692Z,99801.28
2023-05-23T02:04:11.429Z,99796.91
2023-05-23T02:09:13.190Z,99798.41
2023-05-23T02:14:14.779Z,99795.69
2023-05-23T02:19:17.279Z,99777.59
2023-05-23T02:24:21.389Z,99767.22
2023-05-23T02:29:22.997Z,99759.09
2023-05-23T02:34:24.839Z,99749.94
2023-05-23T02:39:27.407Z,99738.69
2023-05-23T02:44:30.374Z,99737.84
2023-05-23T02:49:32.443Z,99725.16
2023-05-23T02:54:34.405Z,99735.34
2023-05-23T02:59:36.099Z,99724.75
2023-05-23T03:04:38.357Z,99709.53
2023-05-23T03:09:40.035Z,99706.00
2023-05-23T03:14:41.731Z,99690.59
2023-05-23T03:19:43.508Z,99694.16
2023-05-23T03:24:45.273Z,99699.56
2023-05-23T03:29:48.171Z,99688.94
2023-05-23T03:34:49.861Z,99691.44
2023-05-23T03:39:51.544Z,99685.19
2023-05-23T03:44:54.055Z,99677.25
2023-05-23T03:49:56.709Z,99681.22
2023-05-23T03:54:59.970Z,99687.25
2023-05-23T04:00:06.135Z,99700.34
2023-05-23T04:05:18.512Z,99708.03
2023-05-23T04:10:20.981Z,99717.84
2023-05-23T04:15:22.998Z,99721.34
2023-05-23T04:20:30.546Z,99726.75
2023-05-23T04:25:32.216Z,99737.09
2023-05-23T04:30:54.211Z,99732.16
2023-05-23T04:35:59.514Z,99745.47
2023-05-23T04:41:01.507Z,99740.91
2023-05-23T04:46:33.818Z,99740.06
2023-05-23T04:52:01.505Z,99739.19
2023-05-23T04:57:04.490Z,99747.97
2023-05-23T05:02:06.569Z,99755.03
2023-05-23T05:07:08.752Z,99755.16
2023-05-23T05:12:10.619Z,99752.03
2023-05-23T05:17:12.938Z,99759.56
2023-05-23T05:22:25.835Z,99760.41
2023-05-23T05:27:27.906Z,99759.69
2023-05-23T05:32:36.417Z,99753.59
2023-05-23T05:37:38.130Z,99756.38
2023-05-23T05:42:39.928Z,99764.72
2023-05-23T05:47:41.917Z,99763.50
2023-05-23T05:52:43.838Z,99770.94
2023-05-23T05:57:46.818Z,99769.56
2023-05-23T06:02:55.033Z,99777.25
2023-05-23T06:08:26.442Z,99780.69
2023-05-23T06:13:28.331Z,99785.34
2023-05-23T06:18:30.522Z,99782.47
2023-05-23T06:23:32.431Z,99792.50
2023-05-23T06:28:34.592Z,99790.22
2023-05-23T06:33:36.596Z,99785.94
2023-05-23T06:38:38.396Z,99797.84
2023-05-23T06:43:41.007Z,99794.63
2023-05-23T06:49:14.885Z,99803.75
2023-05-23T06:54:19.604Z,99804.53
2023-05-23T06:59:21.490Z,99810.50
2023-05-23T07:04:23.988Z,99807.72
2023-05-23T07:09:25.878Z,99805.56
2023-05-23T07:14:38.311Z,99812.03
2023-05-23T07:19:40.626Z,99817.03
2023-05-23T07:24:42.264Z,99825.91
2023-05-23T07:29:45.947Z,99818.59
2023-05-23T07:34:49.516Z,99824.28
2023-05-23T07:39:51.353Z,99820.59
2023-05-23T07:44:53.540Z,99811.59
2023-05-23T07:49:55.715Z,99816.06
2023-05-23T07:54:58.922Z,99821.59
2023-05-23T08:00:03.238Z,99811.31
2023-05-23T08:05:05.773Z,99814.81
2023-05-23T08:10:08.010Z,99818.41
2023-05-23T08:15:10.386Z,99825.63
2023-05-23T08:20:30.460Z,99819.41
2023-05-23T08:25:32.599Z,99826.56
2023-05-23T08:30:35.105Z,99821.97
2023-05-23T08:35:37.885Z,99837.38
2023-05-23T08:40:50.638Z,99842.22
2023-05-23T08:45:53.737Z,99843.38
2023-05-23T08:50:55.770Z,99843.47
2023-05-23T08:56:02.657Z,99836.72
2023-05-23T09:01:13.566Z,99850.47
2023-05-23T09:06:16.161Z,99857.50
2023-05-23T09:11:18.110Z,99850.88
2023-05-23T09:16:20.417Z,99859.38
2023-05-23T09:21:26.248Z,99868.91
2023-05-23T09:26:38.174Z,99867.47
2023-05-23T09:31:40.390Z,99873.44
2023-05-23T09:36:44.143Z,99882.09
2023-05-23T09:41:48.788Z,99882.97
2023-05-23T09:46:53.780Z,99891.53
2023-05-23T09:52:00.296Z,99897.03
2023-05-23T09:57:02.925Z,99899.47
2023-05-23T10:02:07.470Z,99907.03
2023-05-23T10:07:17.269Z,99914.13
2023-05-23T10:12:39.245Z,99918.91
2023-05-23T10:18:07.826Z,99923.94
2023-05-23T10:23:10.016Z,99921.38
2023-05-23T10:28:12.202Z,99924.13
2023-05-23T10:33:15.257Z,99923.28
2023-05-23T10:38:16.962Z,99929.13
2023-05-23T10:43:18.554Z,99932.03
2023-05-23T10:48:40.913Z,99933.47
2023-05-23T10:53:44.126Z,99931.53
2023-05-23T10:58:45.805Z,99941.66
2023-05-23T11:03:48.645Z,99941.03
2023-05-23T11:09:11.887Z,99944.09
2023-05-23T11:14:14.380Z,99945.59
2023-05-23T11:19:19.573Z,99954.41
2023-05-23T11:24:22.647Z,99946.38
2023-05-23T11:29:29.206Z,99945.06
2023-05-23T11:34:31.073Z,99951.09
2023-05-23T11:39:32.761Z,99946.59
2023-05-23T11:44:34.448Z,99953.44
2023-05-23T11:49:39.890Z,99948.22
2023-05-23T11:54:44.883Z,99946.34
2023-05-23T11:59:46.543Z,99943.59
2023-05-23T12:04:51.175Z,99941.44
2023-05-23T12:09:56.689Z,99952.47
2023-05-23T12:14:59.442Z,99942.97
2023-05-23T12:20:01.460Z,99945.78
2023-05-23T12:25:05.009Z,99945.75
2023-05-23T12:30:14.254Z,99941.56
2023-05-23T12:35:16.547Z,99952.53
2023-05-23T12:40:19.339Z,99952.28
2023-05-23T12:45:32.030Z,99947.25
2023-05-23T12:50:33.729Z,99961.50
2023-05-23T12:55:35.530Z,99968.66
2023-05-23T13:00:37.816Z,99978.84
2023-05-23T13:05:39.961Z,99981.59
2023-05-23T13:10:42.085Z,99978.31
2023-05-23T13:15:43.973Z,99979.00
2023-05-23T13:20:46.497Z,99984.78
2023-05-23T13:25:50.518Z,99980.72
2023-05-23T13:30:52.166Z,99986.63
2023-05-23T13:35:54.274Z,99995.78
2023-05-23T13:40:55.988Z,99994.03
2023-05-23T13:45:57.705Z,99995.13
2023-05-23T13:50:59.590Z,100005.34
2023-05-23T13:56:01.691Z,100003.94
2023-05-23T14:01:03.319Z,100012.00
2023-05-23T14:06:05.237Z,100013.19
2023-05-23T14:11:06.895Z,100015.28
2023-05-23T14:16:08.740Z,100010.72
2023-05-23T14:21:10.643Z,100019.97
2023-05-23T14:26:12.350Z,100023.34
2023-05-23T14:31:13.977Z,100022.31
2023-05-23T14:36:16.324Z,100021.47
2023-05-23T14:41:18.689Z,100029.34
2023-05-23T14:46:20.406Z,100033.00
2023-05-23T14:51:41.811Z,100033.66
2023-05-23T14:56:43.851Z,100043.06
2023-05-23T15:01:45.722Z,100040.97
2023-05-23T15:06:47.496Z,100046.94
2023-05-23T15:11:49.596Z,100045.13
2023-05-23T15:16:51.667Z,100050.78
2023-05-23T15:21:53.317Z,100044.81
2023-05-23T15:26:56.812Z,100051.47
2023-05-23T15:32:01.962Z,100046.06
2023-05-23T15:37:03.904Z,100056.09
2023-05-23T15:42:05.954Z,100052.13
2023-05-23T15:47:07.613Z,100053.53
2023-05-23T15:52:09.288Z,100065.63
2023-05-23T15:57:11.195Z,100078.97
2023-05-23T16:02:12.909Z,100065.59
2023-05-23T16:07:16.409Z,100074.06
2023-05-23T16:12:19.940Z,100078.91
2023-05-23T16:17:21.586Z,100079.50
2023-05-23T16:22:23.702Z,100087.81
2023-05-23T16:27:25.382Z,100094.13
2023-05-23T16:32:30.879Z,100085.88
2023-05-23T16:37:32.610Z,100080.69
2023-05-23T16:42:34.313Z,100084.06
2023-05-23T16:47:36.328Z,100092.00
2023-05-23T16:52:39.588Z,100092.63
2023-05-23T16:57:41.240Z,100095.63
2023-05-23T17:02:42.981Z,100098.28
2023-05-23T17:07:44.652Z,100098.69
2023-05-23T17:12:46.366Z,100117.03
2023-05-23T17:17:48.187Z,100116.91
2023-05-23T17:22:51.799Z,100121.94
2023-05-23T17:27:53.513Z,100125.97
2023-05-23T17:32:55.345Z,100134.31
2023-05-23T17:38:00.849Z,100148.09
2023-05-23T17:43:02.554Z,100164.22
2023-05-23T17:48:04.402Z,100167.94
2023-05-23T17:53:06.299Z,100174.94
2023-05-23T17:58:07.995Z,100175.47
2023-05-23T18:03:09.823Z,100180.25
2023-05-23T18:08:11.492Z,100179.28
2023-05-23T18:13:16.129Z,100188.00
2023-05-23T18:18:18.246Z,100194.59
2023-05-23T18:23:19.990Z,100196.78
2023-05-23T18:28:21.799Z,100202.81
2023-05-23T18:33:23.450Z,100215.41
2023-05-23T18:38:25.518Z,100226.75
2023-05-23T18:43:27.194Z,100231.78
2023-05-23T18:48:29.295Z,100244.06
2023-05-23T18:53:31.248Z,100251.97
2023-05-23T18:58:32.952Z,100264.91
2023-05-23T19:03:36.834Z,100263.69
2023-05-23T19:08:38.642Z,100268.00
2023-05-23T19:13:40.326Z,100287.63
2023-05-23T19:18:41.942Z,100297.97
2023-05-23T19:23:43.566Z,100299.50
2023-05-23T19:28:45.261Z,100319.44
2023-05-23T19:33:46.955Z,100323.25
2023-05-23T19:38:48.599Z,100332.63
2023-05-23T19:43:50.470Z,100344.34
2023-05-23T19:48:52.208Z,100354.91
2023-05-23T19:53:54.614Z,100350.25
2023-05-23T19:58:56.327Z,100357.31
2023-05-23T20:03:58.040Z,100372.44
2023-05-23T20:08:59.874Z,100378.22
2023-05-23T20:14:01.569Z,100382.13
2023-05-23T20:19:03.250Z,100387.75
2023-05-23T20:24:05.155Z,100394.31
2023-05-23T20:29:06.909Z,100403.03
2023-05-23T20:34:08.587Z,100406.78
2023-05-23T20:39:10.215Z,100404.09
2023-05-23T20:44:12.197Z,100405.50
2023-05-23T20:49:15.463Z,100412.88
2023-05-23T20:54:17.139Z,100408.25
2023-05-23T20:59:18.833Z,100408.63
2023-05-23T21:04:20.600Z,100417.91
2023-05-23T21:09:22.311Z,100420.66
2023-05-23T21:14:24.081Z,100420.66
2023-05-23T21:19:25.929Z,100431.84
2023-05-23T21:24:27.945Z,100424.66
2023-05-23T21:29:29.613Z,100434.03
2023-05-23T21:34:31.309Z,100438.16
2023-05-23T21:39:47.135Z,100441.91
2023-05-23T21:44:52.687Z,100444.28
2023-05-23T21:49:54.368Z,100441.06
2023-05-23T21:54:56.221Z,100443.84
2023-05-23T21:59:57.836Z,100444.41
2023-05-23T22:04:59.521Z,100453.38
2023-05-23T22:10:01.448Z,100455.84
2023-05-23T22:15:03.573Z,100454.50
2023-05-23T22:20:05.693Z,100452.00
2023-05-23T22:25:08.016Z,100446.66
2023-05-23T22:30:10.148Z,100462.53
2023-05-23T22:35:11.808Z,100462.69
2023-05-23T22:40:13.444Z,100465.25
2023-05-23T22:45:15.379Z,100462.72
2023-05-23T22:50:17.724Z,100460.19
2023-05-23T22:55:19.372Z,100462.03
2023-05-23T23:00:21.513Z,100467.91
2023-05-23T23:05:23.226Z,100449.41
2023-05-23T23:10:25.164Z,100453.78
2023-05-23T23:15:26.819Z,100447.41
2023-05-23T23:20:28.561Z,100451.25
2023-05-23T23:25:30.390Z,100435.03
2023-05-23T23:30:32.064Z,100442.97
2023-05-23T23:35:33.718Z,100456.56
2023-05-23T23:40:35.427Z,100450.53
2023-05-23T23:45:37.091Z,100443.47
2023-05-23T23:50:38.825Z,100450.22
2023-05-23T23:55:40.530Z,100459.59
